createdAt,value
2023-03-07T00:00:34.698Z,101778.72
2023-03-07T00:05:38.537Z,101776.06
2023-03-07T00:10:42.935Z,101763.81
2023-03-07T00:15:48.597Z,101764.63
2023-03-07T00:20:58.955Z,101760.22
2023-03-07T00:26:05.213Z,101765.38
2023-03-07T00:31:10.612Z,101762.81
2023-03-07T00:36:17.120Z,101758.31
2023-03-07T00:41:22.366Z,101759.97
2023-03-07T00:46:28.770Z,101754.75
2023-03-07T00:51:32.492Z,101756.34
2023-03-07T00:56:37.069Z,101751.19
2023-03-07T01:01:45.973Z,101755.56
2023-03-07T01:06:50.521Z,101753.06
2023-03-07T01:11:54.210Z,101756.59
2023-03-07T01:16:59.855Z,101761.75
2023-03-07T01:22:03.582Z,101758.31
2023-03-07T01:27:07.360Z,101758.41
2023-03-07T01:32:14.098Z,101756.72
2023-03-07T01:37:18.556Z,101753.25
2023-03-07T01:42:23.163Z,101766.28
2023-03-07T01:47:28.821Z,101762.84
2023-03-07T01:52:35.388Z,101756.81
2023-03-07T01:57:42.304Z,101758.59
2023-03-07T02:02:55.148Z,101755.97
2023-03-07T02:08:02.779Z,101756.00
2023-03-07T02:13:07.434Z,101755.22
2023-03-07T02:18:17.037Z,101760.44
2023-03-07T02:23:28.173Z,101758.72
2023-03-07T02:28:34.463Z,101744.81
2023-03-07T02:33:37.777Z,101760.50
2023-03-07T02:38:45.450Z,101777.84
2023-03-07T02:43:50.999Z,101773.50
2023-03-07T02:48:54.658Z,101777.81
2023-03-07T02:53:58.365Z,101780.44
2023-03-07T02:59:05.858Z,101775.25
2023-03-07T03:04:09.718Z,101769.16
2023-03-07T03:09:13.840Z,101776.91
2023-03-07T03:14:19.265Z,101781.28
2023-03-07T03:19:22.925Z,101781.19
2023-03-07T03:24:27.364Z,101776.81
2023-03-07T03:29:34.099Z,101781.19
2023-03-07T03:34:38.292Z,101774.25
2023-03-07T03:39:42.279Z,101782.06
2023-03-07T03:44:48.372Z,101776.88
2023-03-07T03:49:54.150Z,101783.78
2023-03-07T03:54:58.034Z,101780.38
2023-03-07T04:00:04.890Z,101777.75
2023-03-07T04:05:10.342Z,101785.50
2023-03-07T04:10:14.310Z,101784.59
2023-03-07T04:15:20.090Z,101782.72
2023-03-07T04:20:25.106Z,101780.09
2023-03-07T04:25:28.822Z,101776.72
2023-03-07T04:30:34.100Z,101785.38
2023-03-07T04:35:38.272Z,101789.66
2023-03-07T04:40:42.384Z,101790.56
2023-03-07T04:45:47.704Z,101795.72
2023-03-07T04:50:51.565Z,101796.59
2023-03-07T04:55:59.181Z,101800.94
2023-03-07T05:01:05.731Z,101804.44
2023-03-07T05:06:13.495Z,101826.97
2023-03-07T05:11:17.198Z,101834.81
2023-03-07T05:16:22.560Z,101832.22
2023-03-07T05:26:29.951Z,101825.28
2023-03-07T05:31:35.308Z,101830.50
2023-03-07T05:36:38.954Z,101826.13
2023-03-07T05:41:42.771Z,101827.91
2023-03-07T05:46:48.114Z,101825.28
2023-03-07T05:51:51.794Z,101820.09
2023-03-07T05:56:55.403Z,101827.00
2023-03-07T06:02:00.697Z,101832.19
2023-03-07T06:07:04.408Z,101837.41
2023-03-07T06:12:09.044Z,101835.69
2023-03-07T06:17:14.346Z,101838.28
2023-03-07T06:22:17.963Z,101848.66
2023-03-07T06:27:21.636Z,101839.94
2023-03-07T06:32:27.098Z,101845.09
2023-03-07T06:37:30.766Z,101849.47
2023-03-07T06:42:34.401Z,101850.34
2023-03-07T06:47:39.753Z,101853.75
2023-03-07T06:52:43.416Z,101854.63
2023-03-07T06:57:47.502Z,101856.31
2023-03-07T07:02:53.064Z,101860.59
2023-03-07T07:07:56.740Z,101864.13
2023-03-07T07:13:00.465Z,101865.03
2023-03-07T07:18:05.852Z,101870.13
2023-03-07T07:23:09.508Z,101861.50
2023-03-07T07:28:13.177Z,101864.91
2023-03-07T07:33:18.895Z,101863.06
2023-03-07T07:38:22.667Z,101861.34
2023-03-07T07:43:26.418Z,101867.31
2023-03-07T07:48:31.922Z,101872.44
2023-03-07T07:53:35.657Z,101862.09
2023-03-07T07:58:39.290Z,101869.06
2023-03-07T08:03:44.937Z,101861.19
2023-03-07T08:08:48.663Z,101855.94
2023-03-07T08:13:52.311Z,101850.69
2023-03-07T08:18:58.273Z,101855.81
2023-03-07T08:24:01.925Z,101857.53
2023-03-07T08:29:05.553Z,101868.69
2023-03-07T08:34:10.831Z,101863.47
2023-03-07T08:39:14.936Z,101867.75
2023-03-07T08:44:18.570Z,101871.16
2023-03-07T08:49:23.914Z,101868.34
2023-03-07T08:54:29.110Z,101871.69
2023-03-07T08:59:33.477Z,101871.50
2023-03-07T09:04:38.979Z,101886.22
2023-03-07T09:09:42.774Z,101885.22
2023-03-07T09:14:46.444Z,101887.66
2023-03-07T09:19:51.760Z,101887.47
2023-03-07T09:24:55.414Z,101890.94
2023-03-07T09:29:59.024Z,101890.91
2023-03-07T09:35:04.673Z,101892.53
2023-03-07T09:40:12.948Z,101886.34
2023-03-07T09:45:36.134Z,101893.09
2023-03-07T09:50:50.963Z,101887.88
2023-03-07T09:55:57.985Z,101884.19
2023-03-07T10:01:01.941Z,101874.59
2023-03-07T10:06:15.128Z,101878.88
2023-03-07T10:11:29.892Z,101884.09
2023-03-07T10:16:39.983Z,101880.72
2023-03-07T10:21:59.040Z,101879.78
2023-03-07T10:27:06.042Z,101883.97
2023-03-07T10:32:22.918Z,101889.00
2023-03-07T10:37:43.681Z,101872.97
2023-03-07T10:42:47.560Z,101870.00
2023-03-07T10:47:51.212Z,101865.84
2023-03-07T10:52:59.089Z,101859.91
2023-03-07T10:58:17.869Z,101870.09
2023-03-07T11:03:27.462Z,101867.28
2023-03-07T11:08:35.176Z,101872.44
2023-03-07T11:13:39.272Z,101885.22
2023-03-07T11:18:44.212Z,101886.13
2023-03-07T11:24:00.502Z,101884.31
2023-03-07T11:29:08.939Z,101879.13
2023-03-07T11:34:36.202Z,101888.75
2023-03-07T11:39:49.158Z,101886.00
2023-03-07T11:44:55.091Z,101889.34
2023-03-07T11:50:14.529Z,101886.78
2023-03-07T11:55:29.695Z,101884.22
2023-03-07T12:00:37.590Z,101885.13
2023-03-07T12:05:57.591Z,101868.97
2023-03-07T12:11:15.519Z,101881.66
2023-03-07T12:16:24.555Z,101873.09
2023-03-07T12:21:49.630Z,101885.19
2023-03-07T12:27:01.288Z,101883.13
2023-03-07T12:32:10.155Z,101882.25
2023-03-07T12:37:20.800Z,101886.59
2023-03-07T12:42:36.048Z,101890.78
2023-03-07T12:47:56.463Z,101887.94
2023-03-07T12:53:04.937Z,101892.06
2023-03-07T12:58:20.232Z,101892.84
2023-03-07T13:03:35.082Z,101886.06
2023-03-07T13:08:40.719Z,101899.31
2023-03-07T13:13:58.758Z,101890.81
2023-03-07T13:19:34.620Z,101892.53
2023-03-07T13:24:39.423Z,101898.25
2023-03-07T13:30:17.819Z,101895.03
2023-03-07T13:35:55.578Z,101898.19
2023-03-07T13:41:01.152Z,101904.25
2023-03-07T13:46:27.003Z,101910.56
2023-03-07T13:51:30.785Z,101912.47
2023-03-07T13:56:41.076Z,101914.22
2023-03-07T14:01:49.742Z,101928.97
2023-03-07T14:06:56.214Z,101932.44
2023-03-07T14:12:08.352Z,101939.16
2023-03-07T14:17:29.772Z,101950.16
2023-03-07T14:22:55.458Z,101945.19
2023-03-07T14:28:00.379Z,101945.94
2023-03-07T14:33:05.709Z,101946.03
2023-03-07T14:38:16.655Z,101954.69
2023-03-07T14:43:37.551Z,101943.72
2023-03-07T14:49:02.122Z,101949.66
2023-03-07T14:54:13.204Z,101948.88
2023-03-07T14:59:28.009Z,101963.09
2023-03-07T15:04:34.453Z,101969.53
2023-03-07T15:09:38.177Z,101969.56
2023-03-07T15:14:45.725Z,101970.28
2023-03-07T15:19:55.853Z,101975.50
2023-03-07T15:24:59.703Z,101974.38
2023-03-07T15:30:04.662Z,101964.69
2023-03-07T15:35:19.066Z,101970.28
2023-03-07T15:40:29.572Z,101973.47
2023-03-07T15:45:34.983Z,101985.88
2023-03-07T15:50:40.411Z,101993.28
2023-03-07T15:55:46.024Z,102002.56
2023-03-07T16:00:49.720Z,102009.13
2023-03-07T16:05:56.271Z,102018.25
2023-03-07T16:11:03.091Z,102015.28
2023-03-07T16:16:16.482Z,102027.91
2023-03-07T16:21:22.067Z,102031.09
2023-03-07T16:26:26.194Z,102030.19
2023-03-07T16:31:29.923Z,102028.22
2023-03-07T16:36:36.162Z,102026.38
2023-03-07T16:41:43.701Z,102032.53
2023-03-07T16:46:52.243Z,102035.81
2023-03-07T16:52:05.590Z,102025.63
2023-03-07T16:57:15.578Z,102023.88
2023-03-07T17:02:21.427Z,102026.97
2023-03-07T17:07:26.810Z,102020.00
2023-03-07T17:12:30.536Z,102032.91
2023-03-07T17:17:36.616Z,102026.00
2023-03-07T17:22:41.987Z,102023.63
2023-03-07T17:27:49.417Z,102016.56
2023-03-07T17:32:53.936Z,102026.28
2023-03-07T17:37:59.203Z,102028.25
2023-03-07T17:43:02.872Z,102019.59
2023-03-07T17:48:09.032Z,102024.78
2023-03-07T17:53:14.321Z,102017.00
2023-03-07T17:58:17.983Z,102014.34
2023-03-07T18:03:22.276Z,102010.25
2023-03-07T18:08:27.617Z,102016.31
2023-03-07T18:13:31.374Z,102016.59
2023-03-07T18:18:36.332Z,102017.56
2023-03-07T18:23:41.704Z,102013.22
2023-03-07T18:28:47.023Z,102007.16
2023-03-07T18:33:51.084Z,102008.06
2023-03-07T18:38:56.381Z,102003.72
2023-03-07T18:44:00.140Z,102008.13
2023-03-07T18:49:03.737Z,102007.16
2023-03-07T18:54:09.090Z,102006.97
2023-03-07T18:59:12.710Z,102009.59
2023-03-07T19:04:16.650Z,102014.06
2023-03-07T19:09:21.996Z,102019.03
2023-03-07T19:14:25.677Z,102007.41
2023-03-07T19:19:29.326Z,102006.59
2023-03-07T19:24:34.848Z,101990.97
2023-03-07T19:29:38.445Z,101995.84
2023-03-07T19:34:42.053Z,101982.84
2023-03-07T19:39:47.304Z,101986.38
2023-03-07T19:44:50.920Z,101983.34
2023-03-07T19:49:54.528Z,101982.03
2023-03-07T19:54:59.781Z,101981.94
2023-03-07T20:00:03.572Z,101983.19
2023-03-07T20:05:07.934Z,101969.94
2023-03-07T20:10:13.876Z,101971.88
2023-03-07T20:15:17.664Z,101969.03
2023-03-07T20:20:21.361Z,101973.88
2023-03-07T20:25:29.392Z,101969.59
2023-03-07T20:30:33.019Z,101967.09
2023-03-07T20:35:36.678Z,101968.63
2023-03-07T20:40:42.015Z,101961.31
2023-03-07T20:45:45.653Z,101965.53
2023-03-07T20:50:49.298Z,101966.97
2023-03-07T20:55:54.602Z,101967.84
2023-03-07T21:00:58.492Z,101947.41
2023-03-07T21:06:03.666Z,101948.38
2023-03-07T21:11:21.289Z,101930.94
2023-03-07T21:16:25.442Z,101925.56
2023-03-07T21:21:30.340Z,101917.94
2023-03-07T21:26:36.869Z,101899.03
2023-03-07T21:31:40.542Z,101904.53
2023-03-07T21:36:44.299Z,101902.34
2023-03-07T21:41:49.595Z,101884.66
2023-03-07T21:46:53.228Z,101888.66
2023-03-07T21:51:56.870Z,101882.44
2023-03-07T21:57:02.176Z,101877.81
2023-03-07T22:02:05.811Z,101886.09
2023-03-07T22:07:09.442Z,101889.75
2023-03-07T22:12:14.727Z,101879.13
2023-03-07T22:17:18.374Z,101866.00
2023-03-07T22:22:22.282Z,101872.72
2023-03-07T22:27:27.607Z,101873.34
2023-03-07T22:32:31.334Z,101870.66
2023-03-07T22:37:34.973Z,101868.53
2023-03-07T22:42:40.322Z,101860.38
2023-03-07T22:47:43.971Z,101868.06
2023-03-07T22:52:47.651Z,101862.38
2023-03-07T22:57:52.935Z,101848.72
2023-03-07T23:02:56.603Z,101841.81
2023-03-07T23:08:00.318Z,101849.56
2023-03-07T23:13:05.628Z,101837.41
2023-03-07T23:18:09.618Z,101838.69
2023-03-07T23:23:13.268Z,101832.25
2023-03-07T23:28:18.579Z,101825.63
2023-03-07T23:33:22.197Z,101815.53
2023-03-07T23:38:25.818Z,101813.78
2023-03-07T23:43:31.082Z,101821.97
2023-03-07T23:48:34.767Z,101820.00
2023-03-07T23:53:38.615Z,101816.44
2023-03-07T23:58:44.390Z,101814.38
